Time;durP1;ratioP1;P1;durP2;ratioP2;P2;SDS_P1;SDS_P2;PMS_P1;PMS_P2;Temp;Humidity;BMP_temperature;BMP_pressure;BME280_temperature;BME280_humidity;BME280_pressure;Samples;Min_cycle;Max_cycle;Signal;HPM_P1;HPM_P2
2022/08/08 00:02:24;;;;;;;6.97;6.57;;;15.00;99.90;;;;;;5029848;28;20417;-52
2022/08/08 00:05:11;;;;;;;7.63;7.13;;;15.00;99.90;;;;;;5030312;28;20541;-61
2022/08/08 00:07:43;;;;;;;8.10;7.47;;;15.00;99.90;;;;;;5029989;28;20472;-62
2022/08/08 00:10:12;;;;;;;9.97;7.50;;;15.00;99.90;;;;;;5029396;28;20509;-61
2022/08/08 00:13:01;;;;;;;8.00;7.40;;;14.90;99.90;;;;;;5030121;28;20851;-60
2022/08/08 00:15:48;;;;;;;7.90;7.30;;;14.90;99.90;;;;;;5027958;28;20440;-61
2022/08/08 00:18:43;;;;;;;7.50;6.90;;;14.90;99.90;;;;;;5028983;28;20434;-62
2022/08/08 00:21:18;;;;;;;8.73;7.60;;;14.80;99.90;;;;;;5024988;28;20744;-62
2022/08/08 00:23:53;;;;;;;8.00;7.30;;;14.80;99.90;;;;;;5028999;28;20433;-61
2022/08/08 00:26:37;;;;;;;7.70;7.10;;;14.80;99.90;;;;;;5017341;28;20439;-61
2022/08/08 00:29:21;;;;;;;8.37;7.77;;;14.80;99.90;;;;;;5028039;28;20465;-55
2022/08/08 00:31:52;;;;;;;7.40;6.80;;;14.70;99.90;;;;;;5011616;28;20486;-61
2022/08/08 00:37:33;;;;;;;7.50;6.87;;;14.60;99.90;;;;;;5029813;28;20474;-60
2022/08/08 00:40:28;;;;;;;7.60;7.00;;;14.60;99.90;;;;;;5029560;28;20479;-58
2022/08/08 00:43:18;;;;;;;8.00;7.20;;;14.50;99.90;;;;;;5029377;28;20430;-62
2022/08/08 00:46:20;;;;;;;7.77;7.17;;;14.50;99.90;;;;;;5029391;28;20457;-61
2022/08/08 00:49:19;;;;;;;7.50;7.00;;;14.50;99.90;;;;;;5023635;28;20456;-61
2022/08/08 00:51:54;;;;;;;6.90;6.43;;;14.40;99.90;;;;;;5029779;28;20427;-61
2022/08/08 00:54:44;;;;;;;7.20;6.70;;;14.40;99.90;;;;;;5027141;28;20482;-61
2022/08/08 00:57:10;;;;;;;7.40;6.83;;;14.30;99.90;;;;;;5026757;28;20434;-60
2022/08/08 00:59:44;;;;;;;7.37;6.87;;;14.20;99.90;;;;;;5028323;28;20544;-61
2022/08/08 01:02:31;;;;;;;6.97;6.57;;;14.20;99.90;;;;;;5028519;28;20527;-63
2022/08/08 01:05:45;;;;;;;7.00;6.50;;;14.10;99.90;;;;;;5028240;28;21376;-61
2022/08/08 01:08:32;;;;;;;7.57;6.97;;;14.10;99.90;;;;;;4997817;28;20488;-62
2022/08/08 01:11:32;;;;;;;7.30;6.80;;;14.10;99.90;;;;;;5028470;28;20433;-58
2022/08/08 01:14:16;;;;;;;8.13;6.53;;;14.00;99.90;;;;;;5015182;28;21520;-62
2022/08/08 01:17:05;;;;;;;7.07;6.60;;;14.00;99.90;;;;;;5028426;28;20441;-62
2022/08/08 01:19:46;;;;;;;7.43;6.70;;;14.00;99.90;;;;;;5029151;28;20524;-62
2022/08/08 01:22:34;;;;;;;7.40;6.80;;;13.90;99.90;;;;;;5009816;28;20405;-62
2022/08/08 01:25:21;;;;;;;7.17;6.67;;;13.90;99.90;;;;;;5028243;28;20436;-62
2022/08/08 01:28:09;;;;;;;7.47;6.87;;;13.90;99.90;;;;;;5027625;28;20457;-56
2022/08/08 01:30:58;;;;;;;7.77;7.07;;;13.90;99.90;;;;;;5028035;28;20968;-61
2022/08/08 01:33:45;;;;;;;7.00;6.50;;;13.90;99.90;;;;;;5019359;28;20516;-60
2022/08/08 01:36:23;;;;;;;7.17;6.70;;;13.80;99.90;;;;;;5028775;28;20442;-61
2022/08/08 01:38:55;;;;;;;7.57;7.07;;;13.80;99.90;;;;;;5027876;28;20818;-61
2022/08/08 01:41:30;;;;;;;7.37;6.87;;;13.80;99.90;;;;;;5028453;28;20437;-61
2022/08/08 01:44:12;;;;;;;7.77;6.90;;;13.80;99.90;;;;;;5028611;28;20401;-60
2022/08/08 01:47:05;;;;;;;7.20;6.70;;;13.80;99.90;;;;;;5028269;28;20426;-60
2022/08/08 01:50:00;;;;;;;7.50;7.00;;;13.70;99.90;;;;;;5027973;28;20601;-60
2022/08/08 01:52:55;;;;;;;7.13;6.57;;;13.70;99.90;;;;;;5029165;28;20432;-60
2022/08/08 01:55:36;;;;;;;6.80;6.30;;;13.70;99.90;;;;;;5003803;28;20556;-61
2022/08/08 01:58:28;;;;;;;7.10;6.60;;;13.70;99.90;;;;;;5019306;28;20501;-57
2022/08/08 02:01:09;;;;;;;7.53;7.03;;;13.60;99.90;;;;;;5026730;28;20468;-62
2022/08/08 02:03:53;;;;;;;7.63;7.07;;;13.60;99.90;;;;;;5029009;28;20413;-57
2022/08/08 02:06:52;;;;;;;7.33;6.73;;;13.60;99.90;;;;;;5028118;28;20441;-61
2022/08/08 02:09:43;;;;;;;7.73;7.17;;;13.50;99.90;;;;;;5027404;28;20450;-62
2022/08/08 02:12:17;;;;;;;7.87;7.17;;;13.50;99.90;;;;;;5024611;28;20417;-61
2022/08/08 02:14:47;;;;;;;7.50;6.80;;;13.40;99.90;;;;;;5027539;28;20540;-61
2022/08/08 02:17:21;;;;;;;7.63;7.13;;;13.40;99.90;;;;;;5028871;28;20505;-62
2022/08/08 02:20:06;;;;;;;9.73;7.27;;;13.40;99.90;;;;;;5027303;28;20441;-62
2022/08/08 02:22:47;;;;;;;7.70;7.10;;;13.30;99.90;;;;;;5043325;28;20425;-62
2022/08/08 02:25:31;;;;;;;7.40;6.90;;;13.30;99.90;;;;;;5022859;28;20433;-61
2022/08/08 02:28:01;;;;;;;7.67;7.10;;;13.30;99.90;;;;;;5027761;28;20420;-61
2022/08/08 02:30:55;;;;;;;8.00;7.40;;;13.20;99.90;;;;;;5027197;28;20456;-62
2022/08/08 02:33:24;;;;;;;8.83;7.50;;;13.10;99.90;;;;;;5027175;28;20492;-62
2022/08/08 02:35:55;;;;;;;7.90;7.20;;;13.10;99.90;;;;;;5028701;28;20433;-62
2022/08/08 02:38:42;;;;;;;7.50;7.00;;;13.00;99.90;;;;;;5027324;28;20458;-62
2022/08/08 02:41:40;;;;;;;7.77;7.27;;;13.00;99.90;;;;;;5027428;28;20440;-62
2022/08/08 02:44:16;;;;;;;7.70;7.00;;;13.00;99.90;;;;;;4993578;28;20441;-62
2022/08/08 02:46:46;;;;;;;7.60;7.10;;;12.90;99.90;;;;;;5020280;28;20413;-62
2022/08/08 02:49:14;;;;;;;8.00;7.43;;;12.90;99.90;;;;;;5029915;28;20436;-62
2022/08/08 02:52:12;;;;;;;7.50;6.80;;;12.80;99.90;;;;;;5031871;28;20452;-62
2022/08/08 02:54:40;;;;;;;6.97;6.47;;;12.80;99.90;;;;;;5029076;28;20449;-62
2022/08/08 02:57:21;;;;;;;7.07;6.53;;;12.80;99.90;;;;;;5031228;28;20441;-62
2022/08/08 03:00:21;;;;;;;7.77;6.73;;;12.70;99.90;;;;;;5031535;28;20824;-62
2022/08/08 03:03:02;;;;;;;7.23;6.53;;;12.70;99.90;;;;;;5030207;28;20417;-62
2022/08/08 03:06:05;;;;;;;7.17;6.57;;;12.70;99.90;;;;;;5031697;28;20433;-62
2022/08/08 03:09:18;;;;;;;7.70;7.00;;;12.60;99.90;;;;;;5031062;28;20543;-62
2022/08/08 03:11:56;;;;;;;8.10;7.50;;;12.60;99.90;;;;;;5030544;28;20441;-61
2022/08/08 03:14:30;;;;;;;7.83;7.20;;;12.50;99.90;;;;;;5031588;28;20444;-60
2022/08/08 03:17:02;;;;;;;7.90;7.30;;;12.50;99.90;;;;;;5022942;28;20444;-61
2022/08/08 03:20:09;;;;;;;7.73;7.13;;;12.40;99.90;;;;;;5018785;28;20449;-61
2022/08/08 03:22:55;;;;;;;7.70;7.20;;;12.40;99.90;;;;;;5042595;28;20454;-61
2022/08/08 03:25:25;;;;;;;7.30;6.80;;;12.40;99.90;;;;;;5031146;28;20429;-62
2022/08/08 03:27:58;;;;;;;7.77;7.20;;;12.40;99.90;;;;;;5030071;28;20438;-62
2022/08/08 03:30:25;;;;;;;7.50;6.90;;;12.30;99.90;;;;;;5031153;28;20425;-61
2022/08/08 03:35:39;;;;;;;7.80;7.20;;;12.30;99.90;;;;;;5031474;28;20500;-61
2022/08/08 03:38:05;;;;;;;7.93;7.27;;;12.20;99.90;;;;;;5029636;28;20519;-62
2022/08/08 03:40:31;;;;;;;7.30;6.80;;;12.20;99.90;;;;;;5030701;28;20442;-61
2022/08/08 03:42:57;;;;;;;8.00;7.40;;;12.20;99.90;;;;;;5029613;28;20444;-60
2022/08/08 03:45:25;;;;;;;8.47;7.67;;;12.20;99.90;;;;;;5029178;28;20452;-60
2022/08/08 03:48:08;;;;;;;7.60;6.90;;;12.20;99.90;;;;;;5030642;28;21272;-62
2022/08/08 03:50:35;;;;;;;7.83;7.20;;;12.20;99.90;;;;;;5029840;28;20465;-62
2022/08/08 03:53:11;;;;;;;7.50;6.80;;;12.20;99.90;;;;;;5029074;28;20442;-61
2022/08/08 03:55:41;;;;;;;8.07;7.37;;;12.20;99.90;;;;;;5028687;28;20469;-61
2022/08/08 03:58:08;;;;;;;7.43;6.83;;;12.20;99.90;;;;;;5028928;28;20520;-61
2022/08/08 04:00:34;;;;;;;9.63;6.97;;;12.20;99.90;;;;;;5029997;28;20446;-61
2022/08/08 04:03:06;;;;;;;7.73;7.13;;;12.20;99.90;;;;;;5030163;28;20433;-61
2022/08/08 04:05:37;;;;;;;7.90;7.30;;;12.20;99.90;;;;;;5029502;28;20445;-62
2022/08/08 04:08:05;;;;;;;7.57;6.90;;;12.10;99.90;;;;;;5029961;28;21148;-60
2022/08/08 04:10:32;;;;;;;7.47;6.77;;;12.10;99.90;;;;;;5027862;28;20750;-59
2022/08/08 04:13:02;;;;;;;7.07;6.47;;;12.10;99.90;;;;;;5030439;28;20512;-61
2022/08/08 04:15:27;;;;;;;8.27;7.50;;;12.10;99.90;;;;;;5028019;28;20529;-61
2022/08/08 04:17:53;;;;;;;8.00;7.10;;;12.10;99.90;;;;;;5029812;28;20607;-60
2022/08/08 04:20:18;;;;;;;7.20;6.60;;;12.10;99.90;;;;;;5027291;28;20194;-62
2022/08/08 04:22:45;;;;;;;6.70;6.20;;;12.10;99.90;;;;;;5022750;28;20191;-61
2022/08/08 04:25:11;;;;;;;7.60;7.00;;;12.10;99.90;;;;;;5020327;28;20554;-62
2022/08/08 04:27:37;;;;;;;7.30;6.63;;;12.10;99.90;;;;;;5021158;28;20417;-61
2022/08/08 04:30:04;;;;;;;7.47;6.77;;;12.10;99.90;;;;;;5020253;28;20243;-61
2022/08/08 04:32:30;;;;;;;8.20;6.80;;;12.20;99.90;;;;;;5020702;28;20481;-61
2022/08/08 04:34:55;;;;;;;7.40;6.90;;;12.10;99.90;;;;;;5020296;28;20444;-62
2022/08/08 04:37:21;;;;;;;7.07;6.47;;;12.10;99.90;;;;;;5020640;28;20592;-61
2022/08/08 04:39:47;;;;;;;7.40;6.70;;;12.10;99.90;;;;;;5020222;28;20179;-63
2022/08/08 04:42:12;;;;;;;8.03;7.23;;;12.20;99.90;;;;;;5019435;28;20492;-61
2022/08/08 04:44:38;;;;;;;7.40;6.80;;;12.30;99.90;;;;;;5018419;28;20194;-60
2022/08/08 04:47:04;;;;;;;7.00;6.50;;;12.30;99.90;;;;;;5024183;28;20190;-61
2022/08/08 04:49:30;;;;;;;7.77;7.07;;;12.30;99.90;;;;;;5029206;28;20210;-62
2022/08/08 04:51:55;;;;;;;7.47;6.87;;;12.30;99.90;;;;;;5028658;28;20422;-62
2022/08/08 04:54:21;;;;;;;8.23;7.53;;;12.30;99.90;;;;;;5029837;28;20194;-62
2022/08/08 04:56:46;;;;;;;7.30;6.60;;;12.30;99.90;;;;;;5029660;28;20187;-61
2022/08/08 04:59:12;;;;;;;6.90;6.40;;;12.40;99.90;;;;;;5029808;28;20614;-60
2022/08/08 05:01:38;;;;;;;7.47;6.80;;;12.50;99.90;;;;;;5040580;28;20210;-62
2022/08/08 05:04:03;;;;;;;7.47;6.90;;;12.60;99.90;;;;;;5020476;28;20195;-61
2022/08/08 05:06:29;;;;;;;7.53;6.93;;;12.70;99.90;;;;;;5022415;28;20179;-62
2022/08/08 05:08:55;;;;;;;7.50;7.00;;;12.70;99.90;;;;;;5020130;28;20191;-62
2022/08/08 05:11:21;;;;;;;9.10;8.27;;;12.70;99.90;;;;;;5026657;28;20210;-59
2022/08/08 05:13:47;;;;;;;8.30;7.60;;;12.80;99.90;;;;;;5028882;28;20190;-62
2022/08/08 05:16:12;;;;;;;8.43;7.63;;;12.80;99.90;;;;;;5029472;28;20422;-62
2022/08/08 05:18:38;;;;;;;8.27;7.67;;;13.00;99.90;;;;;;5026029;28;20204;-60
2022/08/08 05:21:09;;;;;;;7.47;6.87;;;13.10;99.90;;;;;;5029235;28;20199;-62
2022/08/08 05:23:35;;;;;;;7.73;7.20;;;13.10;99.90;;;;;;5027875;28;20194;-62
2022/08/08 05:26:02;;;;;;;7.70;7.10;;;13.30;99.90;;;;;;5028370;28;20474;-63
2022/08/08 05:28:28;;;;;;;7.60;7.00;;;13.30;99.90;;;;;;5028858;28;20425;-63
2022/08/08 05:30:54;;;;;;;7.67;7.00;;;13.30;99.90;;;;;;5026073;28;20490;-62
2022/08/08 05:33:19;;;;;;;8.60;7.90;;;13.30;99.90;;;;;;5027785;28;20250;-62
2022/08/08 05:35:46;;;;;;;7.87;7.17;;;13.50;99.90;;;;;;5024200;28;20558;-63
2022/08/08 05:38:17;;;;;;;8.23;7.50;;;13.60;99.90;;;;;;5032552;28;20214;-62
2022/08/08 05:40:50;;;;;;;7.70;7.10;;;13.70;99.90;;;;;;5028757;28;20410;-61
2022/08/08 05:43:28;;;;;;;7.97;7.27;;;13.90;99.90;;;;;;5028144;28;20453;-63
2022/08/08 05:45:59;;;;;;;7.90;7.20;;;13.90;99.90;;;;;;5027144;28;20563;-61
2022/08/08 05:48:25;;;;;;;6.77;6.27;;;14.00;99.90;;;;;;5028859;28;20429;-62
2022/08/08 05:50:51;;;;;;;7.73;7.13;;;14.10;99.90;;;;;;5024916;28;20826;-62
2022/08/08 05:53:24;;;;;;;8.30;7.70;;;14.20;99.90;;;;;;5043801;28;20483;-62
2022/08/08 05:55:51;;;;;;;8.40;7.73;;;14.30;99.90;;;;;;5022929;28;20510;-62
2022/08/08 05:58:18;;;;;;;7.63;7.00;;;14.40;99.90;;;;;;5028535;28;20465;-64
2022/08/08 06:00:46;;;;;;;8.20;7.60;;;14.50;99.90;;;;;;5028240;28;20491;-63
2022/08/08 06:03:15;;;;;;;8.30;7.53;;;14.60;99.90;;;;;;5028897;28;20848;-62
2022/08/08 06:05:55;;;;;;;7.50;6.90;;;14.70;99.90;;;;;;5028171;28;20426;-62
2022/08/08 06:08:29;;;;;;;7.40;6.80;;;14.80;99.90;;;;;;5027023;28;21201;-63
2022/08/08 06:10:57;;;;;;;8.23;7.63;;;14.80;99.90;;;;;;5028443;28;20770;-63
2022/08/08 06:13:27;;;;;;;8.73;8.03;;;14.90;99.90;;;;;;5029163;28;20895;-63
2022/08/08 06:15:55;;;;;;;8.40;7.80;;;15.00;99.90;;;;;;5028305;28;20527;-61
2022/08/08 06:18:23;;;;;;;7.57;7.07;;;15.20;99.90;;;;;;5032353;28;20560;-62
2022/08/08 06:20:52;;;;;;;7.60;7.10;;;15.30;99.90;;;;;;5032491;28;20512;-63
2022/08/08 06:23:18;;;;;;;7.30;6.80;;;15.50;99.90;;;;;;5029897;28;20448;-62
2022/08/08 06:25:49;;;;;;;7.43;6.93;;;15.50;99.90;;;;;;5026548;28;20444;-62
2022/08/08 06:28:24;;;;;;;7.13;6.53;;;15.70;99.90;;;;;;5031811;28;20904;-60
2022/08/08 06:30:52;;;;;;;7.43;6.93;;;15.80;99.90;;;;;;5027960;28;20515;-60
2022/08/08 06:33:26;;;;;;;7.53;7.03;;;15.90;99.90;;;;;;5026532;28;20466;-61
2022/08/08 06:35:54;;;;;;;6.97;6.57;;;16.10;99.90;;;;;;5024286;28;20939;-59
2022/08/08 06:38:26;;;;;;;7.33;6.63;;;16.20;99.90;;;;;;5024542;28;20457;-60
2022/08/08 06:40:55;;;;;;;6.87;6.37;;;16.20;99.90;;;;;;5022955;28;20525;-60
2022/08/08 06:43:24;;;;;;;9.50;7.27;;;16.30;99.90;;;;;;5023813;28;20528;-58
2022/08/08 06:45:50;;;;;;;7.67;7.07;;;16.50;99.90;;;;;;5017022;28;20418;-60
2022/08/08 06:48:16;;;;;;;6.77;6.37;;;16.50;99.50;;;;;;5030995;28;20433;-60
2022/08/08 06:50:44;;;;;;;7.70;7.10;;;16.70;99.20;;;;;;5031503;28;20435;-57
2022/08/08 06:53:09;;;;;;;7.20;6.60;;;16.80;98.50;;;;;;5027367;28;20191;-60
2022/08/08 06:55:36;;;;;;;6.60;6.20;;;16.80;97.90;;;;;;5025955;28;20443;-60
2022/08/08 06:58:02;;;;;;;7.10;6.60;;;16.90;96.60;;;;;;5024372;28;20693;-60
2022/08/08 07:00:33;;;;;;;7.40;6.90;;;17.00;95.80;;;;;;5031154;28;20441;-56
2022/08/08 07:03:04;;;;;;;7.50;7.00;;;17.10;95.30;;;;;;5030866;28;20276;-60
2022/08/08 07:05:35;;;;;;;7.30;6.80;;;17.20;94.60;;;;;;5030974;28;20436;-60
2022/08/08 07:08:19;;;;;;;7.10;6.60;;;17.30;94.30;;;;;;5031227;28;21056;-60
2022/08/08 07:10:48;;;;;;;7.20;6.80;;;17.40;94.20;;;;;;5030996;28;20474;-60
2022/08/08 07:13:19;;;;;;;7.20;6.60;;;17.60;93.70;;;;;;5031117;28;20551;-60
2022/08/08 07:15:44;;;;;;;6.83;6.33;;;17.80;92.50;;;;;;5029383;28;20433;-59
2022/08/08 07:18:11;;;;;;;7.60;6.20;;;18.10;91.50;;;;;;5030720;28;20828;-60
2022/08/08 07:20:41;;;;;;;7.27;6.67;;;18.20;91.00;;;;;;5030125;28;20225;-60
2022/08/08 07:23:20;;;;;;;7.00;6.40;;;18.40;90.50;;;;;;5027563;28;20459;-61
2022/08/08 07:25:50;;;;;;;6.60;6.13;;;18.70;88.90;;;;;;5020616;28;20432;-60
2022/08/08 07:28:21;;;;;;;7.20;6.50;;;18.80;87.00;;;;;;5028526;28;20457;-59
2022/08/08 07:30:47;;;;;;;6.97;6.47;;;18.90;86.60;;;;;;5028807;28;20528;-60
2022/08/08 07:33:14;;;;;;;6.57;6.07;;;19.00;85.70;;;;;;5030404;28;20549;-60
2022/08/08 07:35:40;;;;;;;6.77;6.00;;;19.30;83.30;;;;;;5022542;28;20513;-61
2022/08/08 07:38:08;;;;;;;6.87;6.27;;;19.40;81.50;;;;;;5021299;28;20496;-60
2022/08/08 07:40:35;;;;;;;6.50;6.00;;;19.60;79.10;;;;;;5019460;28;20943;-61
2022/08/08 07:43:03;;;;;;;6.60;6.00;;;19.70;77.60;;;;;;5026972;28;20422;-60
2022/08/08 07:45:29;;;;;;;7.33;6.40;;;20.00;76.30;;;;;;5027592;28;20429;-60
2022/08/08 07:47:57;;;;;;;6.77;6.40;;;20.10;74.20;;;;;;5023805;28;20453;-60
2022/08/08 07:50:24;;;;;;;6.30;5.90;;;20.30;72.90;;;;;;5029574;28;20649;-60
2022/08/08 07:52:54;;;;;;;6.87;6.10;;;20.40;71.80;;;;;;5029874;28;20489;-60
2022/08/08 07:55:25;;;;;;;6.73;6.30;;;20.60;70.60;;;;;;5023765;28;20457;-60
2022/08/08 07:58:00;;;;;;;6.73;6.13;;;20.70;70.10;;;;;;5024025;28;20832;-59
2022/08/08 08:00:37;;;;;;;6.17;5.67;;;20.80;69.80;;;;;;5030065;28;20421;-60
2022/08/08 08:03:09;;;;;;;6.10;5.70;;;21.00;68.30;;;;;;5029818;28;20436;-59
2022/08/08 08:05:43;;;;;;;6.17;5.77;;;21.40;65.10;;;;;;5027046;28;20448;-60
2022/08/08 08:08:19;;;;;;;6.80;6.30;;;21.60;63.50;;;;;;5017794;28;20442;-59
2022/08/08 08:10:48;;;;;;;6.33;5.90;;;21.70;61.20;;;;;;5029989;28;20435;-60
2022/08/08 08:13:34;;;;;;;6.40;6.00;;;21.80;60.70;;;;;;5029966;28;20458;-60
2022/08/08 08:16:05;;;;;;;6.00;5.70;;;22.10;58.70;;;;;;5030289;28;20882;-59
2022/08/08 08:18:51;;;;;;;5.60;5.10;;;22.30;56.30;;;;;;5030027;28;20568;-50
2022/08/08 08:21:18;;;;;;;6.00;5.50;;;22.50;54.90;;;;;;5030582;28;20500;-52
2022/08/08 08:23:43;;;;;;;6.13;5.70;;;22.60;52.40;;;;;;5029853;28;20822;-51
2022/08/08 08:26:12;;;;;;;5.33;4.93;;;22.80;50.70;;;;;;5030550;28;20443;-53
2022/08/08 08:28:38;;;;;;;5.40;5.10;;;22.80;50.10;;;;;;5030328;28;20182;-51
2022/08/08 08:31:04;;;;;;;5.00;4.70;;;23.00;49.50;;;;;;5030320;28;20539;-52
2022/08/08 08:33:31;;;;;;;5.87;5.57;;;23.00;48.30;;;;;;5028718;28;20515;-52
2022/08/08 08:35:57;;;;;;;5.23;4.93;;;23.10;48.80;;;;;;5030308;28;20413;-51
2022/08/08 08:38:22;;;;;;;5.67;5.27;;;23.30;47.80;;;;;;5029888;28;20471;-51
2022/08/08 08:40:48;;;;;;;5.37;5.07;;;23.40;47.60;;;;;;5029663;28;20414;-52
2022/08/08 08:43:16;;;;;;;5.87;5.43;;;23.70;46.10;;;;;;5029722;28;20171;-52
2022/08/08 08:45:42;;;;;;;5.73;5.33;;;23.90;46.00;;;;;;5029181;28;20422;-49
2022/08/08 08:48:09;;;;;;;5.50;5.10;;;24.10;44.60;;;;;;5029349;28;20453;-51
2022/08/08 08:50:36;;;;;;;5.53;5.23;;;24.30;43.00;;;;;;5029206;28;20430;-51
2022/08/08 08:53:05;;;;;;;5.87;5.57;;;24.40;41.50;;;;;;5029097;28;20480;-51
2022/08/08 08:55:36;;;;;;;6.17;5.60;;;24.70;41.20;;;;;;5026458;28;20946;-53
2022/08/08 08:58:02;;;;;;;5.37;4.87;;;24.80;39.90;;;;;;5027330;28;20963;-52
2022/08/08 09:00:28;;;;;;;5.70;5.30;;;25.10;38.80;;;;;;5015563;28;20921;-51
2022/08/08 09:02:57;;;;;;;5.50;5.10;;;25.30;38.10;;;;;;5009827;28;20418;-49
2022/08/08 09:05:24;;;;;;;5.30;5.00;;;25.40;37.90;;;;;;5008111;28;20204;-54
2022/08/08 09:07:52;;;;;;;5.40;5.00;;;25.60;36.10;;;;;;5009281;28;20423;-52
2022/08/08 09:10:20;;;;;;;5.80;5.40;;;25.60;36.50;;;;;;5008853;28;20444;-49
2022/08/08 09:12:47;;;;;;;5.97;5.10;;;25.80;36.40;;;;;;5009292;28;20459;-53
2022/08/08 09:15:13;;;;;;;5.57;5.27;;;25.90;35.30;;;;;;5009185;28;20913;-55
2022/08/08 09:17:39;;;;;;;5.10;4.80;;;25.90;35.30;;;;;;5020314;28;20456;-51
2022/08/08 09:20:06;;;;;;;5.60;5.30;;;26.00;34.90;;;;;;5028854;28;20930;-54
2022/08/08 09:22:33;;;;;;;5.20;4.90;;;26.10;34.90;;;;;;5028554;28;20442;-53
2022/08/08 09:24:59;;;;;;;5.03;4.73;;;26.30;33.90;;;;;;5028623;28;20509;-55
2022/08/08 09:27:25;;;;;;;4.70;4.50;;;26.40;33.90;;;;;;5027736;28;20489;-53
2022/08/08 09:30:03;;;;;;;5.40;4.90;;;26.60;33.20;;;;;;5028452;28;20435;-50
2022/08/08 09:32:41;;;;;;;4.93;4.63;;;26.80;33.20;;;;;;5027793;28;20232;-54
2022/08/08 09:35:12;;;;;;;4.87;4.67;;;27.00;32.80;;;;;;5028397;28;20547;-52
2022/08/08 09:37:50;;;;;;;4.63;4.43;;;27.10;31.50;;;;;;5028191;28;20427;-53
2022/08/08 09:40:17;;;;;;;5.00;4.73;;;27.20;30.70;;;;;;5028058;28;20431;-55
2022/08/08 09:42:48;;;;;;;5.73;5.43;;;27.30;30.90;;;;;;5024871;28;20420;-53
2022/08/08 09:45:18;;;;;;;5.47;5.17;;;27.30;30.70;;;;;;5009213;28;21345;-50
2022/08/08 09:47:45;;;;;;;5.97;5.67;;;27.60;30.30;;;;;;5041872;28;20465;-53
2022/08/08 09:50:25;;;;;;;5.37;5.10;;;27.60;30.00;;;;;;5027981;28;20941;-55
2022/08/08 09:52:53;;;;;;;5.57;5.27;;;27.70;29.30;;;;;;5031729;28;20457;-51
2022/08/08 09:55:21;;;;;;;4.70;4.50;;;27.80;28.60;;;;;;5032416;28;20445;-53
2022/08/08 09:57:55;;;;;;;5.00;4.80;;;27.90;28.40;;;;;;5031515;28;20544;-49
2022/08/08 10:00:20;;;;;;;5.30;5.00;;;28.00;28.10;;;;;;5023517;28;20416;-48
2022/08/08 10:02:50;;;;;;;5.60;5.30;;;28.10;28.00;;;;;;5030070;28;20433;-55
2022/08/08 10:05:17;;;;;;;15.20;6.17;;;28.10;27.40;;;;;;5031763;28;20221;-53
2022/08/08 10:07:51;;;;;;;5.77;5.37;;;28.20;27.60;;;;;;5031270;28;20433;-54
2022/08/08 10:10:30;;;;;;;5.70;5.40;;;28.30;27.40;;;;;;5031946;28;20832;-53
2022/08/08 10:12:56;;;;;;;5.63;5.33;;;28.40;26.90;;;;;;5026195;28;20434;-52
2022/08/08 10:15:27;;;;;;;5.03;4.63;;;28.20;26.50;;;;;;5027029;28;20453;-52
2022/08/08 10:17:55;;;;;;;5.43;5.17;;;28.30;26.80;;;;;;5030908;28;20967;-51
2022/08/08 10:20:28;;;;;;;5.40;5.10;;;28.20;26.40;;;;;;5031240;28;20468;-52
2022/08/08 10:23:02;;;;;;;5.80;5.50;;;28.30;26.90;;;;;;5031716;28;20421;-52
2022/08/08 10:25:28;;;;;;;5.50;5.20;;;28.50;26.90;;;;;;5025791;28;20510;-53
2022/08/08 10:27:54;;;;;;;4.90;4.70;;;28.50;25.90;;;;;;5023795;28;20768;-49
2022/08/08 10:30:23;;;;;;;5.30;5.00;;;28.40;25.60;;;;;;5023554;28;20425;-54
2022/08/08 10:32:55;;;;;;;5.50;5.20;;;28.60;25.90;;;;;;5029338;28;20472;-50
2022/08/08 10:35:27;;;;;;;5.80;5.37;;;28.80;25.50;;;;;;5031369;28;20438;-50
2022/08/08 10:37:59;;;;;;;5.70;5.40;;;28.90;25.60;;;;;;5032507;28;20508;-53
2022/08/08 10:40:27;;;;;;;5.20;4.90;;;28.80;25.40;;;;;;5032235;28;20584;-51
2022/08/08 10:42:56;;;;;;;5.50;5.20;;;28.70;25.10;;;;;;5030827;28;20490;-52
2022/08/08 10:45:22;;;;;;;5.37;5.07;;;28.60;24.60;;;;;;5031971;28;20778;-53
2022/08/08 10:47:58;;;;;;;5.57;5.30;;;28.80;25.20;;;;;;5026242;28;20793;-55
2022/08/08 10:50:35;;;;;;;5.90;5.57;;;28.80;24.90;;;;;;5031806;28;20421;-51
2022/08/08 10:53:06;;;;;;;5.40;5.10;;;28.90;24.50;;;;;;5031942;28;20421;-52
2022/08/08 10:55:32;;;;;;;5.87;5.53;;;29.00;25.00;;;;;;5030419;28;20507;-53
2022/08/08 10:58:03;;;;;;;5.37;4.90;;;29.20;24.40;;;;;;5031565;28;20472;-51
2022/08/08 11:00:30;;;;;;;5.27;4.97;;;29.50;24.10;;;;;;5022091;28;21128;-54
2022/08/08 11:02:57;;;;;;;5.10;4.90;;;29.70;23.70;;;;;;5023118;28;21153;-54
2022/08/08 11:05:23;;;;;;;4.90;4.50;;;29.60;23.50;;;;;;5025321;28;20465;-54
2022/08/08 11:07:56;;;;;;;5.53;5.23;;;29.50;23.20;;;;;;5026497;28;20522;-53
2022/08/08 11:10:23;;;;;;;5.20;4.90;;;29.50;23.60;;;;;;5022056;28;20184;-54
2022/08/08 11:12:54;;;;;;;5.70;5.40;;;29.50;23.60;;;;;;5023167;28;20525;-51
2022/08/08 11:15:22;;;;;;;5.27;5.07;;;29.50;23.40;;;;;;5022657;28;20434;-53
2022/08/08 11:17:48;;;;;;;5.27;5.03;;;29.70;23.40;;;;;;5023883;28;20455;-49
2022/08/08 11:20:24;;;;;;;5.57;5.20;;;29.70;23.50;;;;;;5022896;28;20507;-54
2022/08/08 11:22:53;;;;;;;5.33;5.03;;;29.90;23.60;;;;;;5023130;28;20458;-53
2022/08/08 11:25:24;;;;;;;5.50;5.10;;;30.00;23.50;;;;;;5022601;28;20430;-55
2022/08/08 11:27:53;;;;;;;5.07;4.77;;;30.20;23.00;;;;;;5028994;28;20972;-55
2022/08/08 11:30:22;;;;;;;5.73;5.23;;;30.40;22.60;;;;;;5029880;28;20539;-54
2022/08/08 11:32:52;;;;;;;5.30;5.00;;;30.40;21.90;;;;;;5030458;28;20465;-53
2022/08/08 11:35:19;;;;;;;5.60;5.20;;;30.50;22.60;;;;;;5030254;28;20429;-54
2022/08/08 11:37:45;;;;;;;5.03;4.73;;;30.50;22.30;;;;;;5030476;28;20436;-55
2022/08/08 11:40:12;;;;;;;5.60;5.30;;;30.40;22.30;;;;;;5029987;28;20422;-54
2022/08/08 11:42:40;;;;;;;5.57;5.37;;;30.30;22.90;;;;;;5030005;28;20190;-54
2022/08/08 11:45:07;;;;;;;5.40;4.93;;;30.40;23.00;;;;;;5028235;28;20438;-53
2022/08/08 11:47:33;;;;;;;5.20;5.00;;;30.40;22.80;;;;;;5030181;28;20440;-54
2022/08/08 11:50:07;;;;;;;5.30;5.10;;;30.40;22.30;;;;;;5025777;28;20424;-55
2022/08/08 11:52:34;;;;;;;5.13;4.83;;;30.50;21.90;;;;;;5029614;28;20814;-52
2022/08/08 11:55:00;;;;;;;5.10;4.80;;;30.50;22.30;;;;;;5029837;28;20907;-55
2022/08/08 11:57:27;;;;;;;5.07;4.87;;;30.70;22.40;;;;;;5030446;28;20923;-56
2022/08/08 11:59:57;;;;;;;4.77;4.57;;;30.90;22.30;;;;;;5028838;28;20465;-55
2022/08/08 12:02:26;;;;;;;5.30;5.00;;;31.20;21.90;;;;;;5029802;28;20433;-53
2022/08/08 12:05:07;;;;;;;5.53;5.17;;;31.30;21.30;;;;;;5029491;28;20683;-52
2022/08/08 12:07:53;;;;;;;4.93;4.73;;;31.40;21.20;;;;;;5030453;28;20414;-55
2022/08/08 12:10:29;;;;;;;5.60;5.20;;;31.10;20.40;;;;;;5025421;28;20445;-54
2022/08/08 12:13:03;;;;;;;5.20;5.00;;;30.80;20.60;;;;;;5030202;28;20433;-54
2022/08/08 12:15:37;;;;;;;4.97;4.67;;;30.70;21.50;;;;;;5029814;28;20430;-53
2022/08/08 12:18:24;;;;;;;4.80;4.50;;;30.70;21.10;;;;;;5029956;28;20966;-53
2022/08/08 12:20:54;;;;;;;5.40;5.10;;;30.90;21.20;;;;;;5030279;28;20513;-52
2022/08/08 12:23:34;;;;;;;5.37;4.97;;;31.00;21.30;;;;;;5029719;28;20440;-53
2022/08/08 12:26:10;;;;;;;4.87;4.67;;;31.20;21.30;;;;;;5027238;28;20417;-55
2022/08/08 12:28:36;;;;;;;5.57;5.27;;;31.30;21.20;;;;;;5017397;28;20558;-50
2022/08/08 12:31:06;;;;;;;5.10;4.80;;;31.40;21.10;;;;;;5029584;28;20456;-51
2022/08/08 12:33:32;;;;;;;4.47;4.27;;;31.50;20.80;;;;;;5029619;28;20473;-54
2022/08/08 12:36:12;;;;;;;5.33;5.00;;;31.60;20.70;;;;;;5028350;28;20448;-50
2022/08/08 12:38:49;;;;;;;4.77;4.47;;;31.70;20.40;;;;;;5028454;28;20272;-55
2022/08/08 12:41:15;;;;;;;5.60;5.30;;;31.90;20.30;;;;;;5029450;28;20755;-53
2022/08/08 12:43:41;;;;;;;6.10;4.83;;;32.10;20.30;;;;;;5029196;28;20440;-54
2022/08/08 12:46:16;;;;;;;5.27;4.97;;;32.30;19.20;;;;;;5029003;28;20218;-52
2022/08/08 12:48:53;;;;;;;5.30;4.80;;;32.50;19.20;;;;;;5027703;28;20208;-55
2022/08/08 12:51:19;;;;;;;5.10;4.87;;;32.70;18.60;;;;;;5019190;28;20426;-55
2022/08/08 12:53:59;;;;;;;4.90;4.70;;;32.40;17.90;;;;;;5028336;28;20792;-51
2022/08/08 12:56:32;;;;;;;4.60;4.40;;;32.40;18.50;;;;;;5029284;28;20941;-55
2022/08/08 12:58:59;;;;;;;6.40;6.00;;;32.60;18.60;;;;;;5027441;28;20552;-52
2022/08/08 13:01:37;;;;;;;5.10;4.80;;;32.70;18.40;;;;;;5040816;28;20477;-49
2022/08/08 13:04:14;;;;;;;5.17;4.73;;;32.90;17.80;;;;;;5029503;28;20447;-54
2022/08/08 13:06:57;;;;;;;4.80;4.50;;;33.10;18.50;;;;;;5028608;28;20428;-54
2022/08/08 13:09:31;;;;;;;5.23;5.03;;;33.50;18.20;;;;;;5022453;28;20859;-55
2022/08/08 13:11:57;;;;;;;5.40;5.00;;;33.90;16.80;;;;;;5022873;28;20418;-55
2022/08/08 13:14:41;;;;;;;5.50;5.20;;;33.80;17.30;;;;;;5039255;28;20465;-54
2022/08/08 13:17:07;;;;;;;5.17;4.90;;;34.00;17.20;;;;;;5017264;28;20191;-52
2022/08/08 13:19:35;;;;;;;5.17;4.93;;;34.40;16.90;;;;;;5027872;28;20484;-56
2022/08/08 13:22:01;;;;;;;6.00;5.50;;;34.90;16.90;;;;;;5029376;28;20191;-55
2022/08/08 13:24:28;;;;;;;5.60;5.40;;;35.50;15.80;;;;;;5029091;28;20440;-52